Flight Track Log - Related Links

Times and Time Zones

All times are in EST time to prevent confusion due to time zone crossing. See the QJE1949 flight status page for this flight to view local times or setup timezone preferences in your user account.

Time Position Orientation Groundspeed Altitude Reporting Facility
EST Latitude Longitude Course Direction KTS MPH feet Rate Location/Type
Mon 08:24:20 PM -16.8536 145.7383 336° Northwest 163 188 1,400  Level FlightAware ADS-B
Mon 08:24:35 PM -16.8452 145.7344 339° North 177 204 1,900 2,400 Climbing Aus ATC (RADAR)
Mon 08:24:40 PM -16.8391 145.7320 338° Northwest 173 199 2,200 2,000 Climbing FlightAware ADS-B
Mon 08:24:50 PM -16.8306 145.7296 345° North 182 209 2,400 600 Climbing FlightAware ADS-B
Mon 08:25:00 PM -16.8212 145.7303 North 201 231 2,400 632 Level FlightAware ADS-B
Mon 08:25:09 PM -16.8131 145.7339 24° Northeast 220 253 2,600 1,263 Climbing FlightAware ADS-B
Mon 08:25:19 PM -16.8045 145.7407 37° Northeast 234 269 2,800 2,600 Climbing FlightAware ADS-B
Mon 08:25:39 PM -16.7884 145.7553 41° Northeast 221 254 3,900 3,200 Climbing FlightAware ADS-B
Mon 08:25:49 PM -16.7797 145.7614 34° Northeast 230 265 4,400 2,571 Climbing FlightAware ADS-B
Mon 08:26:00 PM -16.7689 145.7643 14° North 227 261 4,800 2,000 Climbing FlightAware ADS-B
Mon 08:26:10 PM -16.7572 145.7631 355° North 236 272 5,100 1,655 Climbing FlightAware ADS-B
Mon 08:26:29 PM -16.7359 145.7555 341° North 265 305 5,600 2,100 Climbing FlightAware ADS-B
Mon 08:26:50 PM -16.7125 145.7455 338° Northwest 272 313 6,500 2,516 Climbing FlightAware ADS-B
Mon 08:27:00 PM -16.7014 145.7379 327° Northwest 281 323 6,900 2,400 Climbing FlightAware ADS-B
Mon 08:27:10 PM -16.6932 145.7269 308° West 282 325 7,300 2,700 Climbing FlightAware ADS-B
Mon 08:27:20 PM -16.6886 145.7140 290° West 285 328 7,800 3,158 Climbing FlightAware ADS-B
Mon 08:27:29 PM -16.6879 145.7019 274° West 287 330 8,300 3,158 Climbing FlightAware ADS-B
Mon 08:27:39 PM -16.6908 145.6879 258° West 287 330 8,800 2,903 Climbing FlightAware ADS-B
Mon 08:28:00 PM -16.7028 145.6629 243° Southwest 289 333 9,800 2,471 Climbing FlightAware ADS-B
Mon 08:28:30 PM -16.7261 145.6269 236° Southwest 299 344 10,900 1,714 Climbing FlightAware ADS-B
Mon 08:29:10 PM -16.7591 145.5767 236° Southwest 335 386 11,800 1,286 Climbing FlightAware ADS-B
Mon 08:29:40 PM -16.7878 145.5352 234° Southwest 358 412 12,400 1,391 Climbing FlightAware ADS-B
Mon 08:30:19 PM -16.8267 145.4778 235° Southwest 372 428 13,400 1,680 Climbing FlightAware ADS-B
Mon 08:31:45 PM -16.9100 145.3566 235° Southwest 380 437 15,900 1,603 Climbing Aus ATC (RADAR)
Mon 08:32:15 PM -16.9426 145.3104 234° Southwest 390 449 16,500 1,424 Climbing Aus ATC (RADAR)
Mon 08:32:44 PM -16.9747 145.2617 235° Southwest 401 461 17,300 1,406 Climbing Aus ATC (RADAR)
Mon 08:33:19 PM -17.0137 145.2043 235° Southwest 416 479 18,000 1,280 Climbing Aus ATC (RADAR)
Mon 08:33:59 PM -17.0590 145.1370 235° Southwest 422 486 18,900 1,520 Climbing Aus ATC (RADAR)
Mon 08:34:34 PM -17.0998 145.0779 234° Southwest 425 489 19,900 1,765 Climbing Aus ATC (RADAR)
Mon 08:35:24 PM -17.1560 144.9938 235° Southwest 420 483 21,400 1,600 Climbing Aus ATC (RADAR)
Mon 08:35:49 PM -17.1844 144.9515 235° Southwest 423 487 21,900 918 Climbing Aus ATC (RADAR)
Mon 08:36:49 PM -17.2557 144.8468 234° Southwest 441 507 22,700 1,267 Climbing Aus ATC (RADAR)
Mon 08:37:19 PM -17.2909 144.7946 235° Southwest 438 504 23,800 1,527 Climbing Aus ATC (RADAR)
Mon 08:37:44 PM -17.3204 144.7513 234° Southwest 437 503 24,100 814 Climbing Aus ATC (RADAR)
Mon 08:38:18 PM -17.3616 144.6891 235° Southwest 443 510 24,600 1,063 Climbing Aus ATC (RADAR)
Mon 08:39:03 PM -17.4166 144.6096 234° Southwest 446 513 25,500 1,047 Climbing Aus ATC (RADAR)
Mon 08:39:44 PM -17.4644 144.5382 235° Southwest 447 514 26,100 867 Climbing Aus ATC (RADAR)
Mon 08:40:33 PM -17.5249 144.4487 235° Southwest 450 518 26,800 892 Climbing Aus ATC (RADAR)
Mon 08:40:58 PM -17.5553 144.4034 235° Southwest 453 521 27,200 709 Climbing Aus ATC (RADAR)
Mon 08:42:23 PM -17.6588 144.2494 235° Southwest 456 525 28,100 600 Climbing Aus ATC (RADAR)
Mon 08:42:38 PM -17.6771 144.2218 235° Southwest 458 527 28,200 545 Climbing Aus ATC (RADAR)
Mon 08:43:18 PM -17.7261 144.1493 235° Southwest 456 525 28,600 565 Climbing Aus ATC (RADAR)
Mon 08:44:03 PM -17.7808 144.0669 235° Southwest 457 526 29,000 675 Climbing Aus ATC (RADAR)
Mon 08:44:38 PM -17.8233 144.0034 235° Southwest 455 524 29,500 698 Climbing Aus ATC (RADAR)
Mon 08:45:29 PM -17.8844 143.9128 235° Southwest 455 524 30,000 480 Climbing Aus ATC (RADAR)
Mon 08:45:53 PM -17.9148 143.8677 235° Southwest 453 521 30,100 500 Climbing Aus ATC (RADAR)
Mon 08:46:53 PM -17.9873 143.7583 235° Southwest 453 521 30,700 667 Climbing Aus ATC (RADAR)
Mon 08:47:23 PM -18.0237 143.7040 235° Southwest 451 519 31,100 840 Climbing Aus ATC (RADAR)
Mon 08:47:43 PM -18.0479 143.6676 235° Southwest 450 518 31,400 800 Climbing Aus ATC (RADAR)
Mon 08:48:08 PM -18.0778 143.6227 235° Southwest 449 517 31,700 400 Climbing Aus ATC (RADAR)
Mon 08:48:58 PM -18.1379 143.5332 235° Southwest 448 516 31,900 174 Climbing Aus ATC (RADAR)
Mon 08:49:17 PM -18.1608 143.4967 236° Southwest 448 516 31,900  Level Aus ATC (RADAR)
Mon 08:49:52 PM -18.2033 143.4345 234° Southwest 448 516 31,900  Level Aus ATC (RADAR)
Mon 08:50:48 PM -18.2683 143.3345 236° Southwest 453 521 31,900  Level Aus ATC (RADAR)
Mon 08:51:47 PM -18.3404 143.2268 235° Southwest 449 517 31,900  Level Aus ATC (RADAR)
Mon 08:52:17 PM -18.3751 143.1727 236° Southwest 447 514 31,900  Level Aus ATC (RADAR)
Mon 08:52:32 PM -18.3917 143.1452 238° Southwest 446 513 31,900  Level Aus ATC (RADAR)
Mon 08:53:12 PM -18.4377 143.0734 236° Southwest 445 512 31,900  Level Aus ATC (RADAR)
Mon 08:53:52 PM -18.4839 143.0006 236° Southwest 450 518 31,900  Level Aus ATC (RADAR)
Mon 08:54:17 PM -18.5129 142.9548 236° Southwest 452 520 31,900  Level Aus ATC (RADAR)
Mon 08:54:57 PM -18.5603 142.8818 236° Southwest 453 521 31,900  Level Aus ATC (RADAR)
Mon 08:55:47 PM -18.6183 142.7903 236° Southwest 452 520 31,900  Level Aus ATC (RADAR)
Mon 08:56:22 PM -18.6586 142.7263 236° Southwest 451 519 31,900  Level Aus ATC (RADAR)
Mon 08:57:27 PM -18.7339 142.6074 236° Southwest 452 520 31,900  Level Aus ATC (RADAR)
Mon 08:57:52 PM -18.7631 142.5618 236° Southwest 452 520 31,900  Level Aus ATC (RADAR)
Mon 08:58:27 PM -18.8032 142.4978 236° Southwest 451 519 31,900  Level Aus ATC (RADAR)
Mon 08:59:21 PM -18.8665 142.3974 236° Southwest 449 517 31,900  Level Aus ATC (RADAR)
Mon 08:59:51 PM -18.9008 142.3422 237° Southwest 450 518 31,900  Level Aus ATC (RADAR)
Mon 09:00:46 PM -18.9642 142.2414 236° Southwest 450 518 31,900  Level Aus ATC (RADAR)
Mon 09:01:02 PM -18.9815 142.2136 237° Southwest 452 520 31,900  Level Aus ATC (RADAR)
Mon 09:02:22 PM -19.0707 142.0656 237° Southwest 443 510 31,900  Level Aus ATC (RADAR)
Mon 09:02:51 PM -19.0802 142.0104 260° West 365 420 31,900  Level Aus ATC (RADAR)
Mon 09:03:16 PM -19.0675 141.9554 284° West 369 425 31,900  Level Aus ATC (RADAR)
Mon 09:03:51 PM -19.0322 141.8876 299° West 381 438 31,900  Level Aus ATC (RADAR)
Mon 09:04:36 PM -18.9866 141.8012 299° West 418 481 31,900  Level Aus ATC (RADAR)
Mon 09:04:56 PM -18.9703 141.7621 294° West 427 491 31,900 36 Level Aus ATC (RADAR)
Mon 09:06:00 PM -19.0380 141.6591 235° Southwest  Level Estimated
Mon 09:11:59 PM -19.6496 140.9543 236° Southwest 32,000  Level Aus ATC (Calculated)
Mon 09:13:00 PM -19.7128 140.8534 236° Southwest  Level Estimated
Mon 09:13:15 PM -19.7654 140.8154 237° Southwest 32,000  Level Aus ATC (Calculated)
Mon 09:15:00 PM -19.8735 140.6412 237° Southwest  Level Estimated
Mon 09:15:38 PM -19.9823 140.5546 237° Southwest 32,000  Level Aus ATC (Calculated)
Mon 09:16:00 PM -19.9352 140.5415 237° Southwest  Level Estimated
Mon 09:17:00 PM -20.0637 140.4211 237° Southwest  Level Estimated
Mon 09:18:00 PM -20.1231 140.3233 237° Southwest  Level Estimated
Mon 09:19:00 PM -20.1825 140.2254 237° Southwest  Level Estimated
Mon 09:19:00 PM -20.2508 140.1703 238° Southwest 32,000  Level Aus ATC (Calculated)
Mon 09:20:00 PM -20.3097 140.0721 237° Southwest  Level Estimated
Mon 09:21:00 PM -20.3686 139.9737 237° Southwest  Level Estimated
Mon 09:22:00 PM -20.4274 139.8753 237° Southwest  Level Estimated
Mon 09:23:00 PM -20.4862 139.7768 237° Southwest  Level Estimated
Mon 09:24:00 PM -20.5449 139.6783 238° Southwest  Level Estimated
Mon 09:24:00 PM -20.5958 139.6001 238° Southwest 32,000  Level Aus ATC (Calculated)
Mon 09:25:00 PM -20.6544 139.5014 238° Southwest  Level Estimated
Mon 09:26:00 PM -20.7129 139.4026 238° Southwest  Level Estimated
Mon 09:27:00 PM -20.7713 139.3037 238° Southwest  Level Estimated
Mon 09:27:14 PM -20.8099 139.2381 238° Southwest 34,000  Level Aus ATC (Calculated)
Mon 09:29:00 PM -20.9130 139.0632 238° Southwest  Level Estimated
Mon 09:30:00 PM -20.9712 138.9640 238° Southwest  Level Estimated
Mon 09:31:00 PM -21.0294 138.8648 238° Southwest  Level Estimated
Mon 09:32:00 PM -21.0876 138.7655 238° Southwest  Level Estimated
Mon 09:32:08 PM -21.0994 138.7414 238° Southwest 34,000  Level Aus ATC (Calculated)
Mon 09:32:59 PM -21.1572 138.6418 238° Southwest 34,000  Level Aus ATC (Calculated)
Mon 09:34:00 PM -21.2162 138.5407 238° Southwest  Level Estimated
Mon 09:35:00 PM -21.2742 138.4411 238° Southwest  Level Estimated
Mon 09:36:00 PM -21.3321 138.3415 238° Southwest  Level Estimated
Mon 09:36:37 PM -21.3875 138.2427 238° Southwest 34,000  Level Aus ATC (Calculated)
Mon 09:38:00 PM -21.4682 138.1035 238° Southwest  Level Estimated
Mon 09:38:00 PM -21.4736 138.0927 238° Southwest 34,000  Level Aus ATC (Calculated)
Mon 09:39:00 PM -21.5314 137.9929 238° Southwest  Level Estimated
Mon 09:39:00 PM -21.5310 137.9926 238° Southwest 34,000  Level Aus ATC (Calculated)
Mon 09:40:00 PM -21.5887 137.8927 238° Southwest  Level Estimated
Mon 09:41:00 PM -21.6464 137.7927 238° Southwest  Level Estimated
Mon 09:41:37 PM -21.6774 137.7360 239° Southwest 34,000  Level Aus ATC (Calculated)
Mon 09:43:00 PM -21.7571 137.5975 238° Southwest  Level Estimated
Mon 09:44:00 PM -21.8146 137.4973 238° Southwest  Level Estimated
Mon 09:45:00 PM -21.8720 137.3970 238° Southwest  Level Estimated
Mon 09:46:00 PM -21.9294 137.2966 238° Southwest  Level Estimated
Mon 09:46:37 PM -21.9883 137.1869 239° Southwest 34,000  Level Aus ATC (Calculated)
Mon 09:47:00 PM -21.9867 137.1962 238° Southwest  Level Estimated
Mon 09:48:00 PM -22.0676 137.0479 238° Southwest  Level Estimated
Mon 09:49:00 PM -22.1249 136.9473 238° Southwest  Level Estimated
Mon 09:50:00 PM -22.1821 136.8466 238° Southwest  Level Estimated
Mon 09:51:00 PM -22.2392 136.7458 238° Southwest  Level Estimated
Mon 09:51:00 PM -22.2533 136.7143 239° Southwest 34,000  Level Aus ATC (Calculated)
Mon 09:51:10 PM -22.2533 136.7143 239° Southwest 34,000  Level Aus ATC (Calculated)
Mon 09:51:50 PM -22.2974 136.6354 239° Southwest 34,000  Level Aus ATC (Calculated)
Mon 09:53:00 PM -22.3646 136.5167 239° Southwest  Level Estimated
Mon 09:53:23 PM -22.3819 136.4836 239° Southwest 34,000  Level Aus ATC (Calculated)
Mon 09:54:00 PM -22.4221 136.4149 239° Southwest  Level Estimated
Mon 09:54:10 PM -22.4100 136.4330 239° Southwest 34,000  Level Aus ATC (Calculated)
Mon 09:55:48 PM -22.5223 136.2303 239° Southwest 34,000  Level Aus ATC (Calculated)
Mon 09:56:00 PM -22.5154 136.2462 239° Southwest  Level Estimated
Mon 09:57:00 PM -22.5913 136.1079 239° Southwest  Level Estimated
Mon 09:58:00 PM -22.6487 136.0058 239° Southwest  Level Estimated
Mon 09:58:17 PM -22.6624 135.9764 239° Southwest 34,000  Level Aus ATC (Calculated)
Mon 10:00:00 PM -22.7610 135.8011 239° Southwest  Level Estimated
Mon 10:00:57 PM -22.7798 135.7642 240° Southwest  Level Aus ATC (Calculated)
Mon 10:01:00 PM -22.8183 135.6988 239° Southwest  Level Estimated
Mon 10:02:00 PM -22.8401 135.6568 239° Southwest  Level Estimated
Mon 10:03:00 PM -22.8974 135.5545 239° Southwest  Level Estimated
Mon 10:03:15 PM -22.8824 135.5747 239° Southwest 408 470 34,000  Level FlightAware ADS-B
Mon 10:04:06 PM -22.9264 135.4951 239° Southwest 408 470 34,000  Level FlightAware ADS-B
Mon 10:04:37 PM -22.9593 135.4341 240° Southwest 408 470 34,000  Level FlightAware ADS-B
Mon 10:05:07 PM -22.9859 135.3850 239° Southwest 409 471 34,000  Level FlightAware ADS-B
Mon 10:05:38 PM -23.0196 135.3233 239° Southwest 409 471 34,000 -1,263 Level FlightAware ADS-B
Mon 10:05:49 PM -23.0473 135.2860 247° West -2,133 Descending Aus ATC (Calculated)
Mon 10:06:23 PM -23.0638 135.2446 239° Southwest 399 459 32,400 28,000 Climbing FlightAware ADS-B
Mon 10:06:55 PM -23.0920 135.1923 240° Southwest 395 455 30,800 -2,903 Descending FlightAware ADS-B
Mon 10:07:25 PM -23.1198 135.1380 241° Southwest 402 463 29,400 -2,700 Descending FlightAware ADS-B
Mon 10:07:55 PM -23.1490 135.0838 240° Southwest 407 468 28,100 -2,710 Descending FlightAware ADS-B
Mon 10:08:27 PM -23.1785 135.0291 240° Southwest 396 456 26,600 -2,903 Descending FlightAware ADS-B
Mon 10:08:41 PM -23.1806 135.0463 247° West -3,000 Descending Aus ATC (Calculated)
Mon 10:08:57 PM -23.2057 134.9802 239° Southwest 389 448 25,100 23,695 Climbing FlightAware ADS-B
Mon 10:09:40 PM -23.2454 134.9061 239° Southwest 387 445 23,300 -2,548 Descending FlightAware ADS-B
Mon 10:10:10 PM -23.2716 134.8571 240° Southwest 381 438 22,000 -2,526 Descending FlightAware ADS-B
Mon 10:10:56 PM -23.3129 134.7804 240° Southwest 372 428 20,100 -2,444 Descending FlightAware ADS-B
Mon 10:11:31 PM -23.3437 134.7240 239° Southwest 376 433 18,700 -2,400 Descending FlightAware ADS-B
Mon 10:11:57 PM -23.3379 134.7331 239° Southwest 800 -2,400 Descending Aus ATC (Calculated)
Mon 10:12:01 PM -23.3697 134.6751 240° Southwest 372 428 17,500 27,529 Climbing FlightAware ADS-B
Mon 10:12:31 PM -23.3959 134.6268 240° Southwest 366 421 16,400 -2,300 Descending FlightAware ADS-B
Mon 10:13:01 PM -23.4208 134.5800 240° Southwest 356 410 15,200 -2,164 Descending FlightAware ADS-B
Mon 10:13:32 PM -23.4452 134.5344 240° Southwest 364 419 14,200 -2,164 Descending FlightAware ADS-B
Mon 10:13:55 PM -23.4459 134.5653 251° West -2,400 Descending Aus ATC (Calculated)
Mon 10:14:02 PM -23.4714 134.4850 240° Southwest 361 415 13,000 19,297 Climbing FlightAware ADS-B
Mon 10:14:32 PM -23.4971 134.4366 240° Southwest 361 415 11,900 -1,541 Descending FlightAware ADS-B
Mon 10:15:16 PM -23.5325 134.3717 239° Southwest 323 372 11,100 -1,012 Descending FlightAware ADS-B
Mon 10:15:47 PM -23.5334 134.3675 239° Southwest 800 -923 Descending Aus ATC (Calculated)
Mon 10:15:55 PM -23.5594 134.3201 240° Southwest 298 343 10,500 13,846 Climbing FlightAware ADS-B
Mon 10:16:26 PM -23.5806 134.2793 240° Southwest 296 341 9,800 -1,565 Descending FlightAware ADS-B
Mon 10:16:50 PM -23.6109 134.2637 279° West -1,737 Descending Aus ATC (Calculated)
Mon 10:17:04 PM -23.6064 134.2310 240° Southwest 290 334 8,700 10,041 Climbing FlightAware ADS-B
Mon 10:17:39 PM -23.6300 134.1873 240° Southwest 294 338 8,200 -667 Descending FlightAware ADS-B
Mon 10:17:58 PM -23.6433 134.1621 240° Southwest 283 326 8,100 -1,231 Descending FlightAware ADS-B
Mon 10:18:18 PM -23.6562 134.1374 240° Southwest 285 328 7,400 -1,950 Descending FlightAware ADS-B
Mon 10:18:38 PM -23.6694 134.1119 240° Southwest 287 330 6,800 -1,756 Descending FlightAware ADS-B
Mon 10:18:59 PM -23.6840 134.0845 240° Southwest 287 330 6,200 -1,571 Descending FlightAware ADS-B
Mon 10:19:20 PM -23.6963 134.0614 240° Southwest 279 321 5,700 -1,171 Descending FlightAware ADS-B
Mon 10:19:40 PM -23.7098 134.0361 240° Southwest 279 321 5,400 -857 Descending FlightAware ADS-B
Mon 10:19:50 PM -23.7280 134.0007 188° South 800 -828 Descending Aus ATC (Calculated)
Mon 10:20:09 PM -23.7287 134.0006 240° Southwest 264 304 5,000 5,700 Climbing FlightAware ADS-B
Mon 10:20:30 PM -23.7427 133.9795 237° Southwest 250 288 4,600 -1,200 Descending FlightAware ADS-B
Mon 10:20:39 PM -23.7524 133.9733 211° Southwest 244 281 4,400 -706 Descending FlightAware ADS-B
Mon 10:20:47 PM -23.7614 133.9706 196° South 238 274 4,400  Level FlightAware ADS-B
Mon 10:23:00 PM -23.8067 133.9022 239° Southwest  Level Estimated
Mon 10:24:00 PM -23.8067 133.9022 239° Southwest  Level Estimated
Mon 10:25:00 PM -23.8067 133.9022 239° Southwest  Level Estimated
Mon 10:26:00 PM -23.8067 133.9022 239° Southwest  Level Estimated
Mon 10:27:00 PM -23.8067 133.9022 239° Southwest  Level Estimated
Mon 10:28:00 PM -23.8067 133.9022 239° Southwest  Level Estimated
Mon 10:29:00 PM -23.8067 133.9022 239° Southwest  Level Estimated
Mon 10:30:00 PM -23.8067 133.9022 239° Southwest  Level Estimated
Mon 10:31:00 PM -23.8067 133.9022 239° Southwest  Level Estimated
Mon 10:32:00 PM -23.8067 133.9022 239° Southwest  Level Estimated
Mon 10:33:00 PM -23.8067 133.9022 239° Southwest  Level Estimated
Mon 10:34:00 PM -23.8067 133.9022 239° Southwest  Level Estimated
Mon 10:35:00 PM -23.8067 133.9022 239° Southwest  Level Estimated
Mon 10:36:00 PM -23.8067 133.9022 239° Southwest  Level Estimated
Mon 10:37:00 PM -23.8067 133.9022 239° Southwest  Level Estimated
Mon 10:38:00 PM -23.8067 133.9022 239° Southwest  Level Estimated
Mon 10:39:00 PM -23.8067 133.9022 239° Southwest  Level Estimated

Login

Don't have an account? Register now (free) for customized features, flight alerts, and more!